createdAt,value
2018-09-03T00:00:39.372Z,16.75
2018-09-03T00:01:39.136Z,16.81
2018-09-03T00:02:39.138Z,16.81
2018-09-03T00:03:39.426Z,16.81
2018-09-03T00:04:39.370Z,16.78
2018-09-03T00:05:39.139Z,16.84
2018-09-03T00:06:39.106Z,16.81
2018-09-03T00:07:39.388Z,16.74
2018-09-03T00:08:39.387Z,16.89
2018-09-03T00:09:39.108Z,16.81
2018-09-03T00:10:39.123Z,16.76
2018-09-03T00:11:39.101Z,16.89
2018-09-03T00:12:39.106Z,16.78
2018-09-03T00:13:38.861Z,16.91
2018-09-03T00:14:39.107Z,16.84
2018-09-03T00:15:39.144Z,16.76
2018-09-03T00:16:38.848Z,16.72
2018-09-03T00:17:38.858Z,16.84
2018-09-03T00:18:38.854Z,16.78
2018-09-03T00:19:39.112Z,16.74
2018-09-03T00:20:39.105Z,16.79
2018-09-03T00:21:39.105Z,16.79
2018-09-03T00:22:39.109Z,16.75
2018-09-03T00:23:39.396Z,16.76
2018-09-03T00:24:39.108Z,16.76
2018-09-03T00:25:39.170Z,16.74
2018-09-03T00:26:39.137Z,16.76
2018-09-03T00:27:39.107Z,16.79
2018-09-03T00:28:38.857Z,16.76
2018-09-03T00:29:39.110Z,16.75
2018-09-03T00:30:39.359Z,16.75
2018-09-03T00:31:39.360Z,16.75
2018-09-03T00:32:39.361Z,16.76
2018-09-03T00:33:39.371Z,16.78
2018-09-03T00:34:39.110Z,16.71
2018-09-03T00:35:39.093Z,16.78
2018-09-03T00:36:39.362Z,16.81
2018-09-03T00:37:39.112Z,16.75
2018-09-03T00:38:38.854Z,16.9
2018-09-03T00:39:39.358Z,16.84
2018-09-03T00:40:39.360Z,16.83
2018-09-03T00:41:39.109Z,16.75
2018-09-03T00:42:39.100Z,16.79
2018-09-03T00:43:39.115Z,16.87
2018-09-03T00:44:38.842Z,16.71
2018-09-03T00:45:39.355Z,16.87
2018-09-03T00:46:38.842Z,16.89
2018-09-03T00:47:38.853Z,16.79
2018-09-03T00:48:39.362Z,16.79
2018-09-03T00:49:38.838Z,16.79
2018-09-03T00:50:39.407Z,16.81
2018-09-03T00:51:38.840Z,16.75
2018-09-03T00:52:38.838Z,16.78
2018-09-03T00:53:39.359Z,16.71
2018-09-03T00:54:38.846Z,16.72
2018-09-03T00:55:39.110Z,16.71
2018-09-03T00:56:39.093Z,16.75
2018-09-03T00:57:39.348Z,16.72
2018-09-03T00:58:39.099Z,16.72
2018-09-03T00:59:39.099Z,16.66
2018-09-03T01:00:39.103Z,16.74
2018-09-03T01:01:39.108Z,16.74
2018-09-03T01:02:38.841Z,16.71
2018-09-03T01:03:38.841Z,16.69
2018-09-03T01:04:39.354Z,16.72
2018-09-03T01:05:39.106Z,16.68
2018-09-03T01:06:39.381Z,16.66
2018-09-03T01:07:39.098Z,16.68
2018-09-03T01:08:39.371Z,16.68
2018-09-03T01:09:39.377Z,16.71
2018-09-03T01:10:38.827Z,16.75
2018-09-03T01:11:39.119Z,16.69
2018-09-03T01:12:39.376Z,16.75
2018-09-03T01:13:39.075Z,16.71
2018-09-03T01:14:39.383Z,16.66
2018-09-03T01:15:39.349Z,16.78
2018-09-03T01:16:39.107Z,16.71
2018-09-03T01:17:39.099Z,16.79
2018-09-03T01:18:39.101Z,16.75
2018-09-03T01:19:39.107Z,16.78
2018-09-03T01:20:39.353Z,16.72
2018-09-03T01:21:39.103Z,16.74
2018-09-03T01:22:39.106Z,16.76
2018-09-03T01:23:39.350Z,16.81
2018-09-03T01:24:39.362Z,16.74
2018-09-03T01:25:39.104Z,16.81
2018-09-03T01:26:39.357Z,16.75
2018-09-03T01:27:39.384Z,16.69
2018-09-03T01:28:39.373Z,16.74
2018-09-03T01:29:39.583Z,16.79
2018-09-03T01:30:39.338Z,16.78
2018-09-03T01:31:39.352Z,16.71
2018-09-03T01:32:39.122Z,16.76
2018-09-03T01:33:39.351Z,16.89
2018-09-03T01:34:39.355Z,16.75
2018-09-03T01:35:39.344Z,16.75
2018-09-03T01:36:39.083Z,16.72
2018-09-03T01:37:38.860Z,16.83
2018-09-03T01:38:39.376Z,16.86
2018-09-03T01:39:39.093Z,16.87
2018-09-03T01:40:39.088Z,16.89
2018-09-03T01:41:39.106Z,16.84
2018-09-03T01:42:39.332Z,16.75
2018-09-03T01:43:39.340Z,16.86
2018-09-03T01:44:39.102Z,16.71
2018-09-03T01:45:39.337Z,16.76
2018-09-03T01:46:39.076Z,16.75
2018-09-03T01:47:39.072Z,16.79
2018-09-03T01:48:39.067Z,16.72
2018-09-03T01:49:39.339Z,16.75
2018-09-03T01:50:39.325Z,16.75
2018-09-03T01:51:39.333Z,16.86
2018-09-03T01:52:39.326Z,16.83
2018-09-03T01:53:39.334Z,16.79
2018-09-03T01:54:39.091Z,16.78
2018-09-03T01:55:39.073Z,16.74
2018-09-03T01:56:39.087Z,16.81
2018-09-03T01:57:39.061Z,16.84
2018-09-03T01:58:39.330Z,16.74
2018-09-03T01:59:39.344Z,16.76
2018-09-03T02:00:39.333Z,16.72
2018-09-03T02:01:38.810Z,16.76
2018-09-03T02:02:39.347Z,16.75
2018-09-03T02:03:39.071Z,16.78
2018-09-03T02:04:39.339Z,16.76
2018-09-03T02:05:39.079Z,16.78
2018-09-03T02:06:38.810Z,16.89
2018-09-03T02:07:39.332Z,16.75
2018-09-03T02:08:39.068Z,16.89
2018-09-03T02:09:39.075Z,16.86
2018-09-03T02:10:39.321Z,16.86
2018-09-03T02:11:39.076Z,16.79
2018-09-03T02:12:38.811Z,16.79
2018-09-03T02:13:39.328Z,16.71
2018-09-03T02:14:39.090Z,16.79
2018-09-03T02:15:39.079Z,16.76
2018-09-03T02:16:39.063Z,16.72
2018-09-03T02:17:39.319Z,16.78
2018-09-03T02:18:39.318Z,16.76
2018-09-03T02:19:39.079Z,16.71
2018-09-03T02:20:39.340Z,16.74
2018-09-03T02:21:39.319Z,16.72
2018-09-03T02:22:39.318Z,16.71
2018-09-03T02:23:38.806Z,16.68
2018-09-03T02:24:39.371Z,16.71
2018-09-03T02:25:39.357Z,16.72
2018-09-03T02:26:39.330Z,16.72
2018-09-03T02:27:39.060Z,16.71
2018-09-03T02:28:39.076Z,16.66
2018-09-03T02:29:39.067Z,16.69
2018-09-03T02:30:39.157Z,16.68
2018-09-03T02:31:39.355Z,16.68
2018-09-03T02:32:38.839Z,16.69
2018-09-03T02:33:39.085Z,16.66
2018-09-03T02:34:39.356Z,16.66
2018-09-03T02:35:39.329Z,16.68
2018-09-03T02:36:39.079Z,16.51
2018-09-03T02:37:39.328Z,16.71
2018-09-03T02:38:39.331Z,16.64
2018-09-03T02:39:39.081Z,16.6
2018-09-03T02:40:39.329Z,16.68
2018-09-03T02:41:39.329Z,16.68
2018-09-03T02:42:39.058Z,16.68
2018-09-03T02:43:39.344Z,16.68
2018-09-03T02:44:39.340Z,16.69
2018-09-03T02:45:40.681Z,16.71
2018-09-03T02:46:38.801Z,16.71
2018-09-03T02:47:39.061Z,16.66
2018-09-03T02:48:39.054Z,16.76
2018-09-03T02:49:39.309Z,16.69
2018-09-03T02:50:39.326Z,16.69
2018-09-03T02:51:39.075Z,16.71
2018-09-03T02:52:39.314Z,16.71
2018-09-03T02:53:39.058Z,16.64
2018-09-03T02:54:39.077Z,16.69
2018-09-03T02:55:39.059Z,16.58
2018-09-03T02:56:39.333Z,16.54
2018-09-03T02:57:39.324Z,16.57
2018-09-03T02:58:39.059Z,16.64
2018-09-03T02:59:39.309Z,16.61
2018-09-03T03:00:39.082Z,16.61
2018-09-03T03:01:39.069Z,16.49
2018-09-03T03:02:39.062Z,16.51
2018-09-03T03:03:39.310Z,16.56
2018-09-03T03:04:39.082Z,16.6
2018-09-03T03:05:39.314Z,16.57
2018-09-03T03:06:39.322Z,16.53
2018-09-03T03:07:39.053Z,16.6
2018-09-03T03:08:39.072Z,16.57
2018-09-03T03:09:39.334Z,16.53
2018-09-03T03:10:39.060Z,16.49
2018-09-03T03:11:38.822Z,16.54
2018-09-03T03:12:39.335Z,16.38
2018-09-03T03:13:39.323Z,16.5
2018-09-03T03:14:39.305Z,16.5
2018-09-03T03:15:39.331Z,16.51
2018-09-03T03:16:39.324Z,16.47
2018-09-03T03:17:39.320Z,16.53
2018-09-03T03:18:39.046Z,16.61
2018-09-03T03:19:39.042Z,16.57
2018-09-03T03:20:38.817Z,16.58
2018-09-03T03:21:39.321Z,16.6
2018-09-03T03:22:39.041Z,16.5
2018-09-03T03:23:39.035Z,16.57
2018-09-03T03:24:39.321Z,16.57
2018-09-03T03:25:38.790Z,16.61
2018-09-03T03:26:39.047Z,16.57
2018-09-03T03:27:39.037Z,16.58
2018-09-03T03:28:39.317Z,16.58
2018-09-03T03:29:39.047Z,16.61
2018-09-03T03:30:39.043Z,16.53
2018-09-03T03:31:39.067Z,16.65
2018-09-03T03:32:43.057Z,16.57
2018-09-03T03:33:39.300Z,16.57
2018-09-03T03:34:39.333Z,16.57
2018-09-03T03:35:39.052Z,16.53
2018-09-03T03:36:39.320Z,16.49
2018-09-03T03:37:39.040Z,16.53
2018-09-03T03:38:39.064Z,16.51
2018-09-03T03:39:39.326Z,16.54
2018-09-03T03:40:39.052Z,16.5
2018-09-03T03:41:39.070Z,16.51
2018-09-03T03:42:39.330Z,16.51
2018-09-03T03:43:39.072Z,16.5
2018-09-03T03:44:39.331Z,16.56
2018-09-03T03:45:39.293Z,16.57
2018-09-03T03:46:39.064Z,16.6
2018-09-03T03:47:39.081Z,16.56
2018-09-03T03:48:39.220Z,16.66
2018-09-03T03:49:39.292Z,16.64
2018-09-03T03:50:39.058Z,16.68
2018-09-03T03:51:39.332Z,16.56
2018-09-03T03:52:39.070Z,16.6
2018-09-03T03:53:39.035Z,16.68
2018-09-03T03:54:39.303Z,16.65
2018-09-03T03:55:39.034Z,16.65
2018-09-03T03:56:39.040Z,16.68
2018-09-03T03:57:38.801Z,16.68
2018-09-03T03:58:39.310Z,16.74
2018-09-03T03:59:39.048Z,16.71
2018-09-03T04:00:39.047Z,16.68
2018-09-03T04:01:39.320Z,16.66
2018-09-03T04:02:39.308Z,16.69
2018-09-03T04:03:38.769Z,16.69
2018-09-03T04:04:38.780Z,16.66
2018-09-03T04:05:39.063Z,16.66
2018-09-03T04:06:39.037Z,16.56
2018-09-03T04:07:39.286Z,16.66
2018-09-03T04:08:38.776Z,16.68
2018-09-03T04:09:39.279Z,16.68
2018-09-03T04:10:38.780Z,16.58
2018-09-03T04:11:38.775Z,16.68
2018-09-03T04:12:39.033Z,16.72
2018-09-03T04:13:39.289Z,16.68
2018-09-03T04:14:39.038Z,16.68
2018-09-03T04:15:39.036Z,16.68
2018-09-03T04:16:38.775Z,16.75
2018-09-03T04:17:38.768Z,16.72
2018-09-03T04:18:39.282Z,16.66
2018-09-03T04:19:39.034Z,16.74
2018-09-03T04:20:39.030Z,16.69
2018-09-03T04:21:39.288Z,16.71
2018-09-03T04:22:39.275Z,16.68
2018-09-03T04:23:39.024Z,16.69
2018-09-03T04:24:39.283Z,16.66
2018-09-03T04:25:39.334Z,16.64
2018-09-03T04:26:39.277Z,16.68
2018-09-03T04:27:39.289Z,16.69
2018-09-03T04:28:39.149Z,16.69
2018-09-03T04:29:39.025Z,16.71
2018-09-03T04:30:39.067Z,16.68
2018-09-03T04:31:39.017Z,16.71
2018-09-03T04:32:39.017Z,16.68
2018-09-03T04:33:39.287Z,16.71
2018-09-03T04:34:38.759Z,16.69
2018-09-03T04:35:39.057Z,16.68
2018-09-03T04:36:39.031Z,16.69
2018-09-03T04:37:39.312Z,16.72
2018-09-03T04:38:39.408Z,16.66
2018-09-03T04:39:39.029Z,16.71
2018-09-03T04:40:39.020Z,16.71
2018-09-03T04:41:38.763Z,16.74
2018-09-03T04:42:39.325Z,16.76
2018-09-03T04:43:39.285Z,16.83
2018-09-03T04:44:39.084Z,16.69
2018-09-03T04:45:39.096Z,16.78
2018-09-03T04:46:38.760Z,16.76
2018-09-03T04:47:39.024Z,16.72
2018-09-03T04:48:39.265Z,16.76
2018-09-03T04:49:39.017Z,16.72
2018-09-03T04:50:39.018Z,16.74
2018-09-03T04:51:39.010Z,16.76
2018-09-03T04:52:39.279Z,16.76
2018-09-03T04:53:39.042Z,16.71
2018-09-03T04:54:39.629Z,16.74
2018-09-03T04:55:38.813Z,16.75
2018-09-03T04:56:39.295Z,16.75
2018-09-03T04:57:39.031Z,16.76
2018-09-03T04:58:39.044Z,16.78
2018-09-03T04:59:39.289Z,16.79
2018-09-03T05:00:39.288Z,16.81
2018-09-03T05:01:39.294Z,16.76
2018-09-03T05:02:39.021Z,16.75
2018-09-03T05:03:39.282Z,16.75
2018-09-03T05:04:38.757Z,16.76
2018-09-03T05:05:39.512Z,16.81
2018-09-03T05:06:39.070Z,16.87
2018-09-03T05:07:39.024Z,16.76
2018-09-03T05:08:40.070Z,16.75
2018-09-03T05:09:39.040Z,16.87
2018-09-03T05:10:39.288Z,16.91
2018-09-03T05:11:39.551Z,16.71
2018-09-03T05:12:39.011Z,16.86
2018-09-03T05:13:39.309Z,16.86
2018-09-03T05:14:39.042Z,16.84
2018-09-03T05:15:39.273Z,16.86
2018-09-03T05:16:39.283Z,16.96
2018-09-03T05:17:39.284Z,16.81
2018-09-03T05:18:39.065Z,16.9
2018-09-03T05:19:39.011Z,16.79
2018-09-03T05:20:39.028Z,16.84
2018-09-03T05:21:39.290Z,16.87
2018-09-03T05:22:39.016Z,16.83
2018-09-03T05:23:39.025Z,16.79
2018-09-03T05:24:39.002Z,16.78
2018-09-03T05:25:39.022Z,16.79
2018-09-03T05:26:39.008Z,16.79
2018-09-03T05:27:39.260Z,16.86
2018-09-03T05:28:38.762Z,16.87
2018-09-03T05:29:38.999Z,16.84
2018-09-03T05:30:39.028Z,16.84
2018-09-03T05:31:39.019Z,16.86
2018-09-03T05:32:39.001Z,16.83
2018-09-03T05:33:39.259Z,16.89
2018-09-03T05:34:39.263Z,16.86
2018-09-03T05:35:39.006Z,16.9
2018-09-03T05:36:38.749Z,16.91
2018-09-03T05:37:39.268Z,16.93
2018-09-03T05:38:39.021Z,16.99
2018-09-03T05:39:39.264Z,16.96
2018-09-03T05:40:39.264Z,16.94
2018-09-03T05:41:39.259Z,16.86
2018-09-03T05:42:39.009Z,16.79
2018-09-03T05:43:38.958Z,16.93
2018-09-03T05:44:39.024Z,16.93
2018-09-03T05:45:39.010Z,16.89
2018-09-03T05:46:39.265Z,16.93
2018-09-03T05:47:39.025Z,16.91
2018-09-03T05:48:39.015Z,16.86
2018-09-03T05:49:39.068Z,16.86
2018-09-03T05:50:39.298Z,16.9
2018-09-03T05:51:39.267Z,16.91
2018-09-03T05:52:39.018Z,16.87
2018-09-03T05:53:39.008Z,16.87
2018-09-03T05:54:39.005Z,17.01
2018-09-03T05:55:39.007Z,16.96
2018-09-03T05:56:39.002Z,16.94
2018-09-03T05:57:39.009Z,16.91
2018-09-03T05:58:39.010Z,16.91
2018-09-03T05:59:39.003Z,17.02
2018-09-03T06:00:39.007Z,16.93
2018-09-03T06:01:39.269Z,16.97
2018-09-03T06:02:39.010Z,16.96
2018-09-03T06:03:38.996Z,16.96
2018-09-03T06:04:39.315Z,17.06
2018-09-03T06:05:39.272Z,17.04
2018-09-03T06:06:39.004Z,17.04
2018-09-03T06:07:39.255Z,17.08
2018-09-03T06:08:39.005Z,17.14
2018-09-03T06:09:39.004Z,17.12
2018-09-03T06:10:39.091Z,17.14
2018-09-03T06:11:39.012Z,17.19
2018-09-03T06:12:39.014Z,17.2
2018-09-03T06:13:39.005Z,17.23
2018-09-03T06:14:39.102Z,17.24
2018-09-03T06:15:38.753Z,17.31
2018-09-03T06:16:39.019Z,17.42
2018-09-03T06:17:39.259Z,17.34
2018-09-03T06:18:39.022Z,17.38
2018-09-03T06:19:38.745Z,17.48
2018-09-03T06:20:39.016Z,17.52
2018-09-03T06:21:39.011Z,17.42
2018-09-03T06:22:39.039Z,17.51
2018-09-03T06:23:39.001Z,17.46
2018-09-03T06:24:39.002Z,17.39
2018-09-03T06:25:38.747Z,17.51
2018-09-03T06:26:39.095Z,17.51
2018-09-03T06:27:38.767Z,17.56
2018-09-03T06:28:38.748Z,17.64
2018-09-03T06:29:39.274Z,17.64
2018-09-03T06:30:39.006Z,17.64
2018-09-03T06:31:39.007Z,17.67
2018-09-03T06:32:39.263Z,17.65
2018-09-03T06:33:39.006Z,17.72
2018-09-03T06:34:38.755Z,17.76
2018-09-03T06:35:39.060Z,17.8
2018-09-03T06:36:39.016Z,17.78
2018-09-03T06:37:39.005Z,17.82
2018-09-03T06:38:38.753Z,17.76
2018-09-03T06:39:39.279Z,17.85
2018-09-03T06:40:39.011Z,17.9
2018-09-03T06:41:38.761Z,18.07
2018-09-03T06:42:39.265Z,18.08
2018-09-03T06:43:39.011Z,18.1
2018-09-03T06:44:39.009Z,18.13
2018-09-03T06:45:39.016Z,18.2
2018-09-03T06:46:39.006Z,18.18
2018-09-03T06:47:38.773Z,18.05
2018-09-03T06:48:39.276Z,18.11
2018-09-03T06:49:39.014Z,18.11
2018-09-03T06:50:39.030Z,18.1
2018-09-03T06:51:39.014Z,18.22
2018-09-03T06:52:39.358Z,18.22
2018-09-03T06:53:38.770Z,18.28
2018-09-03T06:54:39.283Z,18.35
2018-09-03T06:55:39.298Z,18.33
2018-09-03T06:56:39.273Z,18.38
2018-09-03T06:57:39.277Z,18.37
2018-09-03T06:58:38.778Z,18.44
2018-09-03T06:59:39.576Z,18.28
2018-09-03T07:00:39.277Z,18.29
2018-09-03T07:01:38.767Z,18.28
2018-09-03T07:02:39.287Z,18.22
2018-09-03T07:03:39.024Z,18.23
2018-09-03T07:04:39.281Z,18.16
2018-09-03T07:05:39.276Z,18.16
2018-09-03T07:06:39.046Z,18.15
2018-09-03T07:07:39.023Z,18.16
2018-09-03T07:08:38.768Z,18.13
2018-09-03T07:09:39.064Z,18.15
2018-09-03T07:10:39.302Z,18.1
2018-09-03T07:11:39.030Z,18.11
2018-09-03T07:12:39.046Z,18.11
2018-09-03T07:13:39.035Z,18.2
2018-09-03T07:14:39.288Z,18.2
2018-09-03T07:15:38.809Z,18.2
2018-09-03T07:16:39.035Z,18.23
2018-09-03T07:17:39.286Z,18.2
2018-09-03T07:18:39.134Z,18.25
2018-09-03T07:19:39.037Z,18.29
2018-09-03T07:20:39.308Z,18.33
2018-09-03T07:21:38.782Z,18.34
2018-09-03T07:22:39.294Z,18.33
2018-09-03T07:23:38.782Z,18.29
2018-09-03T07:24:39.319Z,18.33
2018-09-03T07:25:39.035Z,18.34
2018-09-03T07:26:39.295Z,18.29
2018-09-03T07:27:39.293Z,18.25
2018-09-03T07:28:39.314Z,18.22
2018-09-03T07:29:39.053Z,18.26
2018-09-03T07:30:39.379Z,18.25
2018-09-03T07:31:39.044Z,18.22
2018-09-03T07:32:39.315Z,18.23
2018-09-03T07:33:39.030Z,18.22
2018-09-03T07:34:39.290Z,18.18
2018-09-03T07:35:38.824Z,18.11
2018-09-03T07:36:39.052Z,18.15
2018-09-03T07:37:39.059Z,18.1
2018-09-03T07:38:38.796Z,18.16
2018-09-03T07:39:38.799Z,18.18
2018-09-03T07:40:39.318Z,18.15
2018-09-03T07:41:39.057Z,18.13
2018-09-03T07:42:39.049Z,18.03
2018-09-03T07:43:39.318Z,18.15
2018-09-03T07:44:38.799Z,18.11
2018-09-03T07:45:39.056Z,18.16
2018-09-03T07:46:39.321Z,18.08
2018-09-03T07:47:39.603Z,18.23
2018-09-03T07:48:39.061Z,18.23
2018-09-03T07:49:39.076Z,18.26
2018-09-03T07:50:39.330Z,18.13
2018-09-03T07:51:39.295Z,18.16
2018-09-03T07:52:39.311Z,18.18
2018-09-03T07:53:39.066Z,18.18
2018-09-03T07:54:39.331Z,18.05
2018-09-03T07:55:39.053Z,18.1
2018-09-03T07:56:39.057Z,18.19
2018-09-03T07:57:39.319Z,18.15
2018-09-03T07:58:38.818Z,18.15
2018-09-03T07:59:39.075Z,18.1
2018-09-03T08:00:39.066Z,18.04
2018-09-03T08:01:39.060Z,17.92
2018-09-03T08:02:39.058Z,17.94
2018-09-03T08:03:38.808Z,17.8
2018-09-03T08:04:39.318Z,17.8
2018-09-03T08:05:39.327Z,17.82
2018-09-03T08:06:39.323Z,17.8
2018-09-03T08:07:39.061Z,17.8
2018-09-03T08:08:39.075Z,17.85
2018-09-03T08:09:39.072Z,17.78
2018-09-03T08:10:39.064Z,17.8
2018-09-03T08:11:39.071Z,17.79
2018-09-03T08:12:39.315Z,17.82
2018-09-03T08:13:38.802Z,17.97
2018-09-03T08:14:39.057Z,18.01
2018-09-03T08:15:39.335Z,18.07
2018-09-03T08:16:39.070Z,18.16
2018-09-03T08:17:39.347Z,18.2
2018-09-03T08:18:39.068Z,18.28
2018-09-03T08:19:39.085Z,18.34
2018-09-03T08:20:39.075Z,18.33
2018-09-03T08:21:39.070Z,18.37
2018-09-03T08:22:39.070Z,18.31
2018-09-03T08:23:38.817Z,18.35
2018-09-03T08:24:39.339Z,18.26
2018-09-03T08:25:39.342Z,18.31
2018-09-03T08:26:39.069Z,18.31
2018-09-03T08:27:39.071Z,18.34
2018-09-03T08:28:39.072Z,18.49
2018-09-03T08:29:39.077Z,18.43
2018-09-03T08:30:39.329Z,18.4
2018-09-03T08:31:39.075Z,18.44
2018-09-03T08:32:39.085Z,18.37
2018-09-03T08:33:39.097Z,18.43
2018-09-03T08:34:40.062Z,18.38
2018-09-03T08:35:39.142Z,18.45
2018-09-03T08:36:39.350Z,18.31
2018-09-03T08:37:39.348Z,18.38
2018-09-03T08:38:39.082Z,18.35
2018-09-03T08:39:39.094Z,18.28
2018-09-03T08:40:39.086Z,18.28
2018-09-03T08:41:39.080Z,18.2
2018-09-03T08:42:39.347Z,18.18
2018-09-03T08:43:39.361Z,18.18
2018-09-03T08:44:40.225Z,18.11
2018-09-03T08:45:39.084Z,18.11
2018-09-03T08:46:39.362Z,18.15
2018-09-03T08:47:39.095Z,18.18
2018-09-03T08:48:39.126Z,18.13
2018-09-03T08:49:39.122Z,18.03
2018-09-03T08:50:38.881Z,17.98
2018-09-03T08:51:39.094Z,18.01
2018-09-03T08:52:39.357Z,18.03
2018-09-03T08:53:39.086Z,17.9
2018-09-03T08:54:39.360Z,17.94
2018-09-03T08:55:39.097Z,17.9
2018-09-03T08:56:38.871Z,18.01
2018-09-03T08:57:39.094Z,17.87
2018-09-03T08:58:39.099Z,17.92
2018-09-03T08:59:38.839Z,17.94
2018-09-03T09:00:39.099Z,17.97
2018-09-03T09:01:39.396Z,17.92
2018-09-03T09:02:39.359Z,17.92
2018-09-03T09:03:39.341Z,17.94
2018-09-03T09:04:39.098Z,17.87
2018-09-03T09:05:39.103Z,17.9
2018-09-03T09:06:39.366Z,18
2018-09-03T09:07:39.100Z,17.9
2018-09-03T09:08:39.090Z,17.9
2018-09-03T09:09:39.365Z,17.95
2018-09-03T09:10:39.353Z,17.95
2018-09-03T09:11:38.939Z,17.9
2018-09-03T09:12:38.839Z,17.89
2018-09-03T09:13:39.349Z,17.94
2018-09-03T09:14:39.363Z,17.97
2018-09-03T09:15:39.370Z,17.95
2018-09-03T09:16:39.371Z,17.95
2018-09-03T09:17:39.631Z,17.87
2018-09-03T09:18:39.359Z,18.07
2018-09-03T09:19:39.374Z,18.03
2018-09-03T09:20:39.376Z,18.03
2018-09-03T09:21:39.352Z,18
2018-09-03T09:22:39.367Z,18.05
2018-09-03T09:23:39.118Z,18.19
2018-09-03T09:24:39.100Z,18.18
2018-09-03T09:25:39.367Z,18.11
2018-09-03T09:26:39.371Z,18.16
2018-09-03T09:27:39.109Z,18.11
2018-09-03T09:28:39.392Z,18.18
2018-09-03T09:29:39.110Z,18.11
2018-09-03T09:30:39.392Z,18.07
2018-09-03T09:31:39.371Z,18.11
2018-09-03T09:32:39.362Z,18.16
2018-09-03T09:33:39.180Z,18.05
2018-09-03T09:34:40.975Z,18.15
2018-09-03T09:35:39.119Z,18.22
2018-09-03T09:36:39.413Z,18.07
2018-09-03T09:37:39.125Z,18.03
2018-09-03T09:38:38.860Z,18
2018-09-03T09:39:39.364Z,18.03
2018-09-03T09:40:39.117Z,18.03
2018-09-03T09:41:39.109Z,18.01
2018-09-03T09:42:39.387Z,17.94
2018-09-03T09:43:39.114Z,17.97
2018-09-03T09:44:38.848Z,17.92
2018-09-03T09:45:39.368Z,17.92
2018-09-03T09:46:39.106Z,17.8
2018-09-03T09:47:39.396Z,17.8
2018-09-03T09:48:39.112Z,17.83
2018-09-03T09:49:39.426Z,17.79
2018-09-03T09:50:39.174Z,17.8
2018-09-03T09:51:39.367Z,17.87
2018-09-03T09:52:39.109Z,17.97
2018-09-03T09:53:39.144Z,17.9
2018-09-03T09:54:39.384Z,17.94
2018-09-03T09:55:41.525Z,18.03
2018-09-03T09:56:39.413Z,18.08
2018-09-03T09:57:39.390Z,18.01
2018-09-03T09:58:39.129Z,18.15
2018-09-03T09:59:39.372Z,18.08
2018-09-03T10:00:38.861Z,18.1
2018-09-03T10:01:39.396Z,18.1
2018-09-03T10:02:39.395Z,18.23
2018-09-03T10:03:39.385Z,18.37
2018-09-03T10:04:39.397Z,18.33
2018-09-03T10:05:39.124Z,18.47
2018-09-03T10:06:39.397Z,18.45
2018-09-03T10:07:39.395Z,18.37
2018-09-03T10:08:39.128Z,18.44
2018-09-03T10:09:39.405Z,18.43
2018-09-03T10:10:39.392Z,18.52
2018-09-03T10:11:39.126Z,18.52
2018-09-03T10:12:39.406Z,18.56
2018-09-03T10:13:38.867Z,18.66
2018-09-03T10:14:39.378Z,18.68
2018-09-03T10:15:39.124Z,18.66
2018-09-03T10:16:39.403Z,18.63
2018-09-03T10:17:39.401Z,18.59
2018-09-03T10:18:39.135Z,18.68
2018-09-03T10:19:39.391Z,18.73
2018-09-03T10:20:41.593Z,18.89
2018-09-03T10:21:39.133Z,18.92
2018-09-03T10:22:39.397Z,19.11
2018-09-03T10:23:39.415Z,19.14
2018-09-03T10:24:39.133Z,19.22
2018-09-03T10:25:39.398Z,19.3
2018-09-03T10:26:38.886Z,19.36
2018-09-03T10:27:39.410Z,19.44
2018-09-03T10:28:39.430Z,19.52
2018-09-03T10:29:39.141Z,19.67
2018-09-03T10:30:38.903Z,19.58
2018-09-03T10:31:39.415Z,19.47
2018-09-03T10:32:39.411Z,19.51
2018-09-03T10:33:39.159Z,19.49
2018-09-03T10:34:38.909Z,19.54
2018-09-03T10:35:39.165Z,19.67
2018-09-03T10:36:39.171Z,19.52
2018-09-03T10:37:39.461Z,19.39
2018-09-03T10:38:39.459Z,19.3
2018-09-03T10:39:39.184Z,19.31
2018-09-03T10:40:39.448Z,19.34
2018-09-03T10:41:39.168Z,19.26
2018-09-03T10:42:39.175Z,19.21
2018-09-03T10:43:39.179Z,19.19
2018-09-03T10:44:39.448Z,19.29
2018-09-03T10:45:39.439Z,19.27
2018-09-03T10:46:39.175Z,19.37
2018-09-03T10:47:39.464Z,19.49
2018-09-03T10:48:39.446Z,19.48
2018-09-03T10:49:39.440Z,19.31
2018-09-03T10:50:39.193Z,19.34
2018-09-03T10:51:39.186Z,19.33
2018-09-03T10:52:38.928Z,19.31
2018-09-03T10:53:38.927Z,19.36
2018-09-03T10:54:39.458Z,19.37
2018-09-03T10:55:39.206Z,19.34
2018-09-03T10:56:39.185Z,19.31
2018-09-03T10:57:39.454Z,19.34
2018-09-03T10:58:38.947Z,19.44
2018-09-03T10:59:39.461Z,19.45
2018-09-03T11:00:39.455Z,19.49
2018-09-03T11:01:39.202Z,19.51
2018-09-03T11:02:39.212Z,19.66
2018-09-03T11:03:39.212Z,19.73
2018-09-03T11:04:39.461Z,19.88
2018-09-03T11:05:39.209Z,19.81
2018-09-03T11:06:39.212Z,19.81
2018-09-03T11:07:39.486Z,19.82
2018-09-03T11:08:39.219Z,19.81
2018-09-03T11:09:39.499Z,19.71
2018-09-03T11:10:39.473Z,19.67
2018-09-03T11:11:39.492Z,19.67
2018-09-03T11:12:39.233Z,19.81
2018-09-03T11:13:38.967Z,19.96
2018-09-03T11:14:39.478Z,20
2018-09-03T11:15:39.471Z,20.13
2018-09-03T11:16:39.482Z,20.26
2018-09-03T11:17:38.975Z,20.37
2018-09-03T11:18:38.971Z,20.4
2018-09-03T11:19:39.491Z,20.36
2018-09-03T11:20:39.251Z,20.52
2018-09-03T11:21:40.422Z,20.58
2018-09-03T11:22:38.989Z,20.75
2018-09-03T11:23:39.237Z,20.82
2018-09-03T11:24:39.602Z,21
2018-09-03T11:25:39.269Z,21.22
2018-09-03T11:26:39.522Z,21.27
2018-09-03T11:27:39.250Z,21.46
2018-09-03T11:28:39.397Z,21.73
2018-09-03T11:29:39.571Z,21.62
2018-09-03T11:30:39.529Z,21.55
2018-09-03T11:31:39.532Z,21.45
2018-09-03T11:32:39.543Z,21.37
2018-09-03T11:33:39.009Z,21.27
2018-09-03T11:34:39.277Z,21.24
2018-09-03T11:35:39.025Z,21.29
2018-09-03T11:36:39.289Z,21.35
2018-09-03T11:37:39.542Z,21.5
2018-09-03T11:38:39.297Z,21.39
2018-09-03T11:39:39.569Z,21.54
2018-09-03T11:40:39.307Z,21.64
2018-09-03T11:41:39.549Z,21.64
2018-09-03T11:42:39.312Z,21.6
2018-09-03T11:43:39.555Z,21.61
2018-09-03T11:44:39.603Z,21.55
2018-09-03T11:45:39.556Z,21.66
2018-09-03T11:46:39.583Z,21.73
2018-09-03T11:47:39.056Z,21.67
2018-09-03T11:48:39.309Z,21.69
2018-09-03T11:49:39.596Z,21.67
2018-09-03T11:50:39.066Z,21.77
2018-09-03T11:51:39.335Z,21.92
2018-09-03T11:52:39.072Z,22.04
2018-09-03T11:53:39.334Z,22.1
2018-09-03T11:54:39.823Z,22.14
2018-09-03T11:55:39.594Z,22.14
2018-09-03T11:56:39.355Z,22.1
2018-09-03T11:57:39.652Z,22.25
2018-09-03T11:58:39.611Z,22.15
2018-09-03T11:59:39.636Z,22.14
2018-09-03T12:00:39.895Z,22.14
2018-09-03T12:01:39.375Z,22.13
2018-09-03T12:02:39.378Z,21.92
2018-09-03T12:03:39.361Z,21.92
2018-09-03T12:04:39.405Z,21.92
2018-09-03T12:05:39.643Z,22.02
2018-09-03T12:06:39.212Z,22.06
2018-09-03T12:07:39.125Z,22.18
2018-09-03T12:08:39.381Z,22.26
2018-09-03T12:09:39.409Z,22.22
2018-09-03T12:10:39.648Z,22.23
2018-09-03T12:11:39.671Z,22.25
2018-09-03T12:12:39.405Z,22.25
2018-09-03T12:13:39.654Z,22.1
2018-09-03T12:14:39.676Z,21.98
2018-09-03T12:15:39.161Z,21.96
2018-09-03T12:16:39.417Z,21.72
2018-09-03T12:17:39.150Z,21.51
2018-09-03T12:18:39.454Z,21.32
2018-09-03T12:19:39.440Z,21.21
2018-09-03T12:20:39.704Z,21.15
2018-09-03T12:21:40.378Z,21.12
2018-09-03T12:22:39.441Z,21.18
2018-09-03T12:23:39.705Z,21.29
2018-09-03T12:24:39.451Z,21.2
2018-09-03T12:25:39.732Z,21.27
2018-09-03T12:26:39.203Z,21.24
2018-09-03T12:27:39.925Z,21.29
2018-09-03T12:28:39.473Z,21.35
2018-09-03T12:29:39.722Z,21.54
2018-09-03T12:30:39.510Z,21.58
2018-09-03T12:31:39.710Z,21.77
2018-09-03T12:32:39.740Z,21.88
2018-09-03T12:33:39.486Z,21.93
2018-09-03T12:34:39.739Z,21.88
2018-09-03T12:35:39.228Z,22.04
2018-09-03T12:36:39.741Z,22.07
2018-09-03T12:37:39.240Z,21.99
2018-09-03T12:38:39.759Z,21.98
2018-09-03T12:39:39.765Z,21.91
2018-09-03T12:40:39.752Z,21.93
2018-09-03T12:41:39.280Z,22.17
2018-09-03T12:42:39.250Z,22.22
2018-09-03T12:43:39.528Z,22.14
2018-09-03T12:44:39.253Z,22.15
2018-09-03T12:45:39.523Z,22.11
2018-09-03T12:46:39.267Z,22.1
2018-09-03T12:47:39.265Z,22.13
2018-09-03T12:48:39.533Z,22.18
2018-09-03T12:49:39.781Z,22.18
2018-09-03T12:50:39.799Z,22.11
2018-09-03T12:51:39.523Z,22.14
2018-09-03T12:52:39.285Z,22.1
2018-09-03T12:53:39.550Z,22
2018-09-03T12:54:39.789Z,21.95
2018-09-03T12:55:39.540Z,21.92